Main page
Satellite images 10-day forecastsClimateMarine weather Cyclones Lightning AirportsFAQ Newsletter About
Weather : Europe Africa North America South America Asia Australia-Oceania Others
Languages Contact

,

latitude: , longitude: , elevation: m


METAR: OTBD 251900Z 32014KT CAVOK 35/09 Q1007 NOSIG
TAF: OTBD 251700Z 2518/2624 33013KT 8000 NSC TEMPO 2606/2615 33013G23KT 5000 DU

Time: 01:20 (23:20 UTC)

Current weather observation

The report was made 4 hours and 20 minutes ago, at 19:00 UTC
Wind 14 kt from the Northwest
Temperature 35°C
Humidity 20%
Pressure 1007 hPa
Visibility 10 km or more
no clouds below 1500 m and no cumulonimbus

Change units

Forecast

The report was made 6 hours and 20 minutes ago, at 17:00 UTC
Forecast valid from 25 at 18 UTC to 26 at 24 UTC
Wind 13 kt from the North/Northwest
Visibility: 8000 m
Temporary
from 26 at 06 UTC to 26 at 15 UTC
Wind 13 kt from the North/Northwest with gusts up to 23 kt
Visibility: 5000 m
widespread dust
The information on this site is subject to a disclaimer
Weather : Europe Africa North America South America Asia Australia-Oceania Others
Satellite images 10-day forecastsClimateMarine weather Cyclones Lightning AirportsFAQ Languages Contact Newsletter About